createdAt,value
2018-01-27T00:01:38.807Z,7.74
2018-01-27T00:04:07.149Z,7.73
2018-01-27T00:06:35.507Z,7.68
2018-01-27T00:09:03.821Z,7.69
2018-01-27T00:11:32.937Z,7.70
2018-01-27T00:14:01.275Z,7.68
2018-01-27T00:16:29.627Z,7.65
2018-01-27T00:18:57.943Z,7.63
2018-01-27T00:21:27.026Z,7.62
2018-01-27T00:23:55.380Z,7.63
2018-01-27T00:26:23.727Z,7.66
2018-01-27T00:28:52.090Z,7.67
2018-01-27T00:31:20.414Z,7.70
2018-01-27T00:33:48.782Z,7.73
2018-01-27T00:36:17.099Z,7.72
2018-01-27T00:38:46.207Z,7.74
2018-01-27T00:41:14.536Z,7.73
2018-01-27T00:43:42.889Z,7.70
2018-01-27T00:46:11.220Z,7.67
2018-01-27T00:48:39.566Z,7.60
2018-01-27T00:51:07.915Z,7.53
2018-01-27T00:53:36.264Z,7.52
2018-01-27T00:56:05.342Z,7.46
2018-01-27T00:58:33.688Z,7.37
2018-01-27T01:01:02.004Z,7.35
2018-01-27T01:03:31.126Z,7.35
2018-01-27T01:05:59.431Z,7.30
2018-01-27T01:08:27.786Z,7.28
2018-01-27T01:10:56.095Z,7.20
2018-01-27T01:13:24.450Z,7.34
2018-01-27T01:15:52.775Z,7.31
2018-01-27T01:18:21.092Z,7.37
2018-01-27T01:20:49.470Z,7.39
2018-01-27T01:23:17.780Z,7.44
2018-01-27T01:25:46.907Z,7.43
2018-01-27T01:28:15.986Z,7.46
2018-01-27T01:30:44.378Z,7.45
2018-01-27T01:33:12.737Z,7.46
2018-01-27T01:35:45.547Z,7.55
2018-01-27T01:38:14.730Z,7.62
2018-01-27T01:40:43.082Z,7.65
2018-01-27T01:43:17.002Z,7.69
2018-01-27T01:45:45.352Z,7.74
2018-01-27T01:48:14.598Z,7.75
2018-01-27T01:50:42.925Z,7.77
2018-01-27T01:53:12.038Z,7.76
2018-01-27T01:55:40.754Z,7.77
2018-01-27T01:58:09.108Z,7.77
2018-01-27T02:00:37.433Z,7.71
2018-01-27T02:03:06.571Z,7.70
2018-01-27T02:05:34.901Z,7.71
2018-01-27T02:08:04.012Z,7.76
2018-01-27T02:10:32.369Z,7.81
2018-01-27T02:13:01.509Z,7.82
2018-01-27T02:15:30.592Z,7.82
2018-01-27T02:17:58.965Z,7.80
2018-01-27T02:20:27.334Z,7.78
2018-01-27T02:22:55.709Z,7.78
2018-01-27T02:25:24.026Z,7.79
2018-01-27T02:27:52.337Z,7.79
2018-01-27T02:30:20.720Z,7.74
2018-01-27T02:32:49.809Z,7.76
2018-01-27T02:35:18.134Z,7.74
2018-01-27T02:37:46.494Z,7.72
2018-01-27T02:40:14.823Z,7.74
2018-01-27T02:42:43.165Z,7.73
2018-01-27T02:45:11.494Z,7.73
2018-01-27T02:47:39.845Z,7.72
2018-01-27T02:50:08.205Z,7.73
2018-01-27T02:52:36.506Z,7.76
2018-01-27T02:55:04.861Z,7.81
2018-01-27T02:57:33.197Z,7.84
2018-01-27T03:00:02.328Z,7.80
2018-01-27T03:02:30.639Z,7.80
2018-01-27T03:04:58.993Z,7.79
2018-01-27T03:07:27.309Z,7.76
2018-01-27T03:09:56.447Z,7.75
2018-01-27T03:12:24.765Z,7.74
2018-01-27T03:14:53.123Z,7.74
2018-01-27T03:17:21.435Z,7.81
2018-01-27T03:19:49.761Z,7.81
2018-01-27T03:22:18.141Z,7.82
2018-01-27T03:24:46.472Z,7.79
2018-01-27T03:27:15.595Z,7.79
2018-01-27T03:29:43.905Z,7.78
2018-01-27T03:32:12.265Z,7.82
2018-01-27T03:34:41.640Z,7.83
2018-01-27T03:37:11.348Z,7.84
2018-01-27T03:39:40.425Z,7.84
2018-01-27T03:42:08.789Z,7.81
2018-01-27T03:44:37.145Z,7.78
2018-01-27T03:47:05.483Z,7.73
2018-01-27T03:49:33.841Z,7.73
2018-01-27T03:52:02.953Z,7.73
2018-01-27T03:54:32.090Z,7.72
2018-01-27T03:57:00.425Z,7.75
2018-01-27T03:59:28.741Z,7.78
2018-01-27T04:01:57.148Z,7.82
2018-01-27T04:04:25.464Z,7.83
2018-01-27T04:06:53.814Z,7.83
2018-01-27T04:09:22.532Z,7.87
2018-01-27T04:11:51.275Z,7.87
2018-01-27T04:14:19.575Z,7.91
2018-01-27T04:16:47.917Z,7.95
2018-01-27T04:19:16.266Z,7.92
2018-01-27T04:21:44.588Z,7.92
2018-01-27T04:24:12.940Z,7.94
2018-01-27T04:26:41.264Z,7.90
2018-01-27T04:29:09.610Z,7.87
2018-01-27T04:31:37.932Z,7.83
2018-01-27T04:34:06.292Z,7.82
2018-01-27T04:36:35.395Z,7.80
2018-01-27T04:39:04.580Z,7.78
2018-01-27T04:41:33.681Z,7.80
2018-01-27T04:44:02.800Z,7.80
2018-01-27T04:46:31.138Z,7.78
2018-01-27T04:48:59.896Z,7.78
2018-01-27T04:51:28.220Z,7.82
2018-01-27T04:53:57.316Z,7.78
2018-01-27T04:56:26.459Z,7.81
2018-01-27T04:58:55.579Z,7.80
2018-01-27T05:01:24.711Z,7.79
2018-01-27T05:03:53.056Z,7.78
2018-01-27T05:06:21.424Z,7.76
2018-01-27T05:08:49.776Z,7.75
2018-01-27T05:11:18.136Z,7.76
2018-01-27T05:13:47.220Z,7.75
2018-01-27T05:16:15.570Z,7.78
2018-01-27T05:18:44.656Z,7.74
2018-01-27T05:21:13.004Z,7.75
2018-01-27T05:23:41.318Z,7.75
2018-01-27T05:26:09.724Z,7.72
2018-01-27T05:28:38.062Z,7.72
2018-01-27T05:31:06.415Z,7.74
2018-01-27T05:33:34.841Z,7.75
2018-01-27T05:36:03.910Z,7.73
2018-01-27T05:38:32.259Z,7.73
2018-01-27T05:41:00.571Z,7.75
2018-01-27T05:43:28.934Z,7.79
2018-01-27T05:45:57.299Z,7.73
2018-01-27T05:48:25.647Z,7.71
2018-01-27T05:50:53.941Z,7.71
2018-01-27T05:53:22.287Z,7.73
2018-01-27T05:55:51.421Z,7.77
2018-01-27T05:58:19.760Z,7.74
2018-01-27T06:00:48.875Z,7.70
2018-01-27T06:03:17.231Z,7.73
2018-01-27T06:05:46.462Z,7.76
2018-01-27T06:08:14.863Z,7.74
2018-01-27T06:10:43.307Z,7.74
2018-01-27T06:13:11.746Z,7.73
2018-01-27T06:15:40.075Z,7.72
2018-01-27T06:18:08.444Z,7.70
2018-01-27T06:20:36.771Z,7.68
2018-01-27T06:23:05.148Z,7.70
2018-01-27T06:25:33.526Z,7.74
2018-01-27T06:28:01.871Z,7.76
2018-01-27T06:30:30.199Z,7.71
2018-01-27T06:32:59.318Z,7.70
2018-01-27T06:35:27.711Z,7.71
2018-01-27T06:37:56.037Z,7.71
2018-01-27T06:40:24.366Z,7.69
2018-01-27T06:42:52.817Z,7.65
2018-01-27T06:45:21.180Z,7.66
2018-01-27T06:47:49.520Z,7.63
2018-01-27T06:50:17.903Z,7.65
2018-01-27T06:52:46.268Z,7.63
2018-01-27T06:55:14.600Z,7.67
2018-01-27T06:57:43.711Z,7.65
2018-01-27T07:00:12.785Z,7.66
2018-01-27T07:02:41.926Z,7.58
2018-01-27T07:05:10.777Z,7.54
2018-01-27T07:07:39.875Z,7.58
2018-01-27T07:10:09.079Z,7.64
2018-01-27T07:12:38.181Z,7.66
2018-01-27T07:15:06.727Z,7.67
2018-01-27T07:17:35.534Z,7.69
2018-01-27T07:20:04.807Z,7.68
2018-01-27T07:22:33.247Z,7.64
2018-01-27T07:25:01.802Z,7.72
2018-01-27T07:27:31.003Z,7.72
2018-01-27T07:30:00.291Z,7.75
2018-01-27T07:32:29.467Z,7.76
2018-01-27T07:34:57.979Z,7.70
2018-01-27T07:37:27.102Z,7.65
2018-01-27T07:39:55.420Z,7.58
2018-01-27T07:42:23.815Z,7.67
2018-01-27T07:44:52.913Z,7.61
2018-01-27T07:47:22.022Z,7.64
2018-01-27T07:49:51.091Z,7.61
2018-01-27T07:52:19.439Z,7.61
2018-01-27T07:54:47.747Z,7.62
2018-01-27T07:57:16.085Z,7.62
2018-01-27T07:59:44.427Z,7.62
2018-01-27T08:02:13.651Z,7.62
2018-01-27T08:04:41.966Z,7.61
2018-01-27T08:07:10.322Z,7.60
2018-01-27T08:09:38.676Z,7.64
2018-01-27T08:12:07.008Z,7.61
2018-01-27T08:14:35.350Z,7.63
2018-01-27T08:17:03.698Z,7.66
2018-01-27T08:19:32.002Z,7.67
2018-01-27T08:22:00.364Z,7.66
2018-01-27T08:24:29.442Z,7.66
2018-01-27T08:26:57.752Z,7.67
2018-01-27T08:29:26.093Z,7.65
2018-01-27T08:31:54.410Z,7.66
2018-01-27T08:34:22.778Z,7.63
2018-01-27T08:36:51.126Z,7.64
2018-01-27T08:39:19.471Z,7.66
2018-01-27T08:41:47.818Z,7.79
2018-01-27T08:44:16.163Z,7.86
2018-01-27T08:46:44.472Z,7.93
2018-01-27T08:49:12.814Z,7.95
2018-01-27T08:51:41.150Z,7.94
2018-01-27T08:54:09.504Z,8.02
2018-01-27T08:56:46.171Z,8.05
2018-01-27T08:59:24.255Z,8.08
2018-01-27T09:02:01.767Z,8.12
2018-01-27T09:04:39.098Z,8.09
2018-01-27T09:07:18.024Z,8.12
2018-01-27T09:09:55.517Z,8.16
2018-01-27T09:12:32.591Z,8.21
2018-01-27T09:15:10.111Z,8.25
2018-01-27T09:17:47.036Z,8.30
2018-01-27T09:20:25.744Z,8.37
2018-01-27T09:23:03.151Z,8.46
2018-01-27T09:25:40.958Z,8.60
2018-01-27T09:28:17.277Z,8.70
2018-01-27T09:30:57.137Z,8.84
2018-01-27T09:33:34.207Z,8.90
2018-01-27T09:36:07.073Z,8.98
2018-01-27T09:38:35.564Z,9.01
2018-01-27T09:41:03.914Z,8.96
2018-01-27T09:43:32.242Z,9.00
2018-01-27T09:46:00.578Z,9.05
2018-01-27T09:48:29.688Z,9.07
2018-01-27T09:50:58.778Z,9.02
2018-01-27T09:53:28.261Z,8.94
2018-01-27T09:55:58.242Z,9.09
2018-01-27T09:58:26.606Z,9.01
2018-01-27T10:00:54.931Z,9.02
2018-01-27T10:03:23.361Z,8.97
2018-01-27T10:05:51.737Z,9.09
2018-01-27T10:08:20.035Z,9.22
2018-01-27T10:10:48.415Z,9.26
2018-01-27T10:13:16.751Z,9.30
2018-01-27T10:15:45.370Z,9.42
2018-01-27T10:18:13.674Z,9.35
2018-01-27T10:20:42.028Z,9.54
2018-01-27T10:23:10.340Z,9.56
2018-01-27T10:25:38.659Z,9.59
2018-01-27T10:28:06.998Z,9.70
2018-01-27T10:30:37.161Z,9.74
2018-01-27T10:33:05.485Z,9.72
2018-01-27T10:35:33.823Z,9.63
2018-01-27T10:38:02.210Z,9.68
2018-01-27T10:40:30.675Z,9.76
2018-01-27T10:42:59.017Z,9.71
2018-01-27T10:45:28.153Z,9.86
2018-01-27T10:47:56.561Z,9.86
2018-01-27T10:50:25.004Z,9.61
2018-01-27T10:52:53.412Z,9.42
2018-01-27T10:55:21.843Z,9.12
2018-01-27T10:57:50.317Z,8.83
2018-01-27T11:00:18.764Z,8.68
2018-01-27T11:02:47.114Z,8.61
2018-01-27T11:05:16.217Z,8.66
2018-01-27T11:07:44.593Z,8.68
2018-01-27T11:10:13.272Z,8.72
2018-01-27T11:12:41.683Z,8.69
2018-01-27T11:15:10.074Z,8.62
2018-01-27T11:17:39.209Z,8.56
2018-01-27T11:20:07.584Z,8.68
2018-01-27T11:22:35.933Z,8.98
2018-01-27T11:25:05.093Z,9.23
2018-01-27T11:27:33.467Z,9.36
2018-01-27T11:30:02.667Z,9.34
2018-01-27T11:32:31.029Z,9.35
2018-01-27T11:34:59.409Z,9.46
2018-01-27T11:37:27.878Z,9.28
2018-01-27T11:39:57.009Z,9.13
2018-01-27T11:42:25.629Z,9.08
2018-01-27T11:44:55.132Z,9.10
2018-01-27T11:47:24.306Z,9.00
2018-01-27T11:49:53.444Z,9.10
2018-01-27T11:52:21.804Z,9.09
2018-01-27T11:54:50.195Z,9.18
2018-01-27T11:57:18.545Z,9.15
2018-01-27T11:59:48.452Z,9.16
2018-01-27T12:02:16.790Z,9.33
2018-01-27T12:04:45.946Z,9.61
2018-01-27T12:07:18.753Z,9.88
2018-01-27T12:09:47.377Z,9.90
2018-01-27T12:12:15.737Z,9.85
2018-01-27T12:14:44.065Z,9.71
2018-01-27T12:17:12.499Z,9.57
2018-01-27T12:19:40.897Z,9.49
2018-01-27T12:22:09.291Z,9.50
2018-01-27T12:24:38.499Z,9.64
2018-01-27T12:27:07.629Z,9.74
2018-01-27T12:29:36.116Z,9.89
2018-01-27T12:32:04.559Z,10.03
2018-01-27T12:34:33.723Z,10.20
2018-01-27T12:37:02.140Z,10.28
2018-01-27T12:39:30.528Z,10.28
2018-01-27T12:41:58.939Z,10.26
2018-01-27T12:44:27.341Z,10.12
2018-01-27T12:46:55.796Z,9.87
2018-01-27T12:49:24.203Z,9.63
2018-01-27T12:52:00.416Z,9.57
2018-01-27T12:54:29.033Z,9.64
2018-01-27T12:56:57.433Z,9.78
2018-01-27T12:59:26.727Z,9.95
2018-01-27T13:01:55.162Z,10.02
2018-01-27T13:04:23.992Z,10.09
2018-01-27T13:06:53.152Z,10.37
2018-01-27T13:09:21.516Z,10.25
2018-01-27T13:11:49.891Z,10.16
2018-01-27T13:14:18.242Z,10.17
2018-01-27T13:16:47.364Z,10.16
2018-01-27T13:19:15.752Z,10.01
2018-01-27T13:21:44.088Z,10.06
2018-01-27T13:24:13.243Z,10.03
2018-01-27T13:26:41.652Z,9.97
2018-01-27T13:29:10.044Z,9.91
2018-01-27T13:31:41.312Z,9.87
2018-01-27T13:34:09.676Z,9.77
2018-01-27T13:36:38.084Z,9.70
2018-01-27T13:39:07.963Z,9.51
2018-01-27T13:41:36.416Z,9.23
2018-01-27T13:44:04.782Z,8.93
2018-01-27T13:46:33.161Z,8.79
2018-01-27T13:49:01.758Z,8.59
2018-01-27T13:51:30.604Z,8.45
2018-01-27T13:53:59.020Z,8.29
2018-01-27T13:56:27.518Z,8.21
2018-01-27T13:58:56.629Z,8.09
2018-01-27T14:01:25.742Z,7.97
2018-01-27T14:03:54.089Z,7.83
2018-01-27T14:06:22.534Z,7.73
2018-01-27T14:08:50.964Z,7.70
2018-01-27T14:11:20.038Z,7.72
2018-01-27T14:13:48.432Z,7.78
2018-01-27T14:16:17.555Z,7.75
2018-01-27T14:18:45.923Z,7.75
2018-01-27T14:21:14.263Z,7.83
2018-01-27T14:23:42.651Z,7.94
2018-01-27T14:26:10.985Z,7.83
2018-01-27T14:28:40.143Z,7.81
2018-01-27T14:31:09.370Z,7.75
2018-01-27T14:33:39.083Z,7.61
2018-01-27T14:36:07.421Z,7.54
2018-01-27T14:38:36.534Z,7.55
2018-01-27T14:41:04.926Z,7.51
2018-01-27T14:43:33.251Z,7.57
2018-01-27T14:46:01.665Z,7.63
2018-01-27T14:48:30.019Z,7.64
2018-01-27T14:50:58.379Z,7.50
2018-01-27T14:53:26.775Z,7.33
2018-01-27T14:55:56.042Z,7.21
2018-01-27T14:58:24.377Z,7.22
2018-01-27T15:00:52.753Z,7.07
2018-01-27T15:03:21.097Z,6.91
2018-01-27T15:05:49.425Z,6.79
2018-01-27T15:08:17.782Z,6.68
2018-01-27T15:10:46.894Z,6.53
2018-01-27T15:13:15.263Z,6.44
2018-01-27T15:15:43.587Z,6.33
2018-01-27T15:18:11.951Z,6.22
2018-01-27T15:20:40.291Z,6.16
2018-01-27T15:23:08.655Z,6.05
2018-01-27T15:25:38.510Z,5.96
2018-01-27T15:28:06.882Z,5.85
2018-01-27T15:30:35.319Z,5.81
2018-01-27T15:33:04.457Z,5.77
2018-01-27T15:35:33.223Z,5.72
2018-01-27T15:38:01.539Z,5.72
2018-01-27T15:40:29.910Z,5.64
2018-01-27T15:42:58.329Z,5.55
2018-01-27T15:45:26.684Z,5.51
2018-01-27T15:47:55.098Z,5.39
2018-01-27T15:50:24.202Z,5.30
2018-01-27T15:52:53.288Z,5.21
2018-01-27T15:55:22.394Z,5.12
2018-01-27T15:57:51.475Z,5.05
2018-01-27T16:00:21.072Z,4.97
2018-01-27T16:02:49.429Z,4.90
2018-01-27T16:05:17.771Z,4.89
2018-01-27T16:07:46.103Z,4.88
2018-01-27T16:10:14.467Z,4.87
2018-01-27T16:12:42.798Z,4.92
2018-01-27T16:15:11.137Z,4.92
2018-01-27T16:17:39.490Z,4.83
2018-01-27T16:20:07.834Z,4.71
2018-01-27T16:22:36.179Z,4.62
2018-01-27T16:25:04.936Z,4.58
2018-01-27T16:27:33.313Z,4.59
2018-01-27T16:30:01.676Z,4.56
2018-01-27T16:32:30.029Z,4.60
2018-01-27T16:34:58.449Z,4.76
2018-01-27T16:37:29.186Z,4.94
2018-01-27T16:39:57.568Z,5.11
2018-01-27T16:42:25.977Z,5.22
2018-01-27T16:44:55.125Z,5.24
2018-01-27T16:47:23.448Z,5.22
2018-01-27T16:49:52.522Z,5.19
2018-01-27T16:52:20.914Z,5.15
2018-01-27T16:54:50.015Z,5.18
2018-01-27T16:57:18.440Z,5.10
2018-01-27T16:59:46.770Z,5.04
2018-01-27T17:02:15.868Z,4.96
2018-01-27T17:04:47.565Z,4.97
2018-01-27T17:07:15.920Z,4.98
2018-01-27T17:09:44.263Z,4.99
2018-01-27T17:12:12.674Z,4.88
2018-01-27T17:14:41.017Z,4.88
2018-01-27T17:17:09.948Z,4.85
2018-01-27T17:19:38.349Z,4.80
2018-01-27T17:22:09.201Z,4.78
2018-01-27T17:24:37.544Z,4.72
2018-01-27T17:27:05.933Z,4.81
2018-01-27T17:29:34.301Z,4.82
2018-01-27T17:32:02.648Z,4.82
2018-01-27T17:34:31.087Z,4.86
2018-01-27T17:36:59.440Z,4.96
2018-01-27T17:39:28.547Z,5.00
2018-01-27T17:41:56.910Z,5.04
2018-01-27T17:44:25.227Z,5.12
2018-01-27T17:46:53.556Z,5.05
2018-01-27T17:49:21.890Z,4.97
2018-01-27T17:51:50.209Z,4.90
2018-01-27T17:54:18.580Z,4.83
2018-01-27T17:56:46.967Z,4.75
2018-01-27T17:59:16.846Z,4.69
2018-01-27T18:01:45.152Z,4.61
2018-01-27T18:04:14.858Z,4.57
2018-01-27T18:06:45.471Z,4.51
2018-01-27T18:09:14.714Z,4.42
2018-01-27T18:11:43.090Z,4.37
2018-01-27T18:14:11.476Z,4.38
2018-01-27T18:16:39.794Z,4.36
2018-01-27T18:19:08.129Z,4.40
2018-01-27T18:21:36.506Z,4.41
2018-01-27T18:24:06.776Z,4.38
2018-01-27T18:26:35.918Z,4.39
2018-01-27T18:29:04.228Z,4.41
2018-01-27T18:31:32.574Z,4.46
2018-01-27T18:34:01.325Z,4.55
2018-01-27T18:36:30.445Z,4.55
2018-01-27T18:38:59.543Z,4.52
2018-01-27T18:41:28.774Z,4.42
2018-01-27T18:43:57.132Z,4.38
2018-01-27T18:46:25.456Z,4.34
2018-01-27T18:48:54.878Z,4.36
2018-01-27T18:51:24.129Z,4.32
2018-01-27T18:53:52.577Z,4.34
2018-01-27T18:56:21.269Z,4.45
2018-01-27T18:58:50.544Z,4.38
2018-01-27T19:01:18.832Z,4.26
2018-01-27T19:03:47.185Z,4.27
2018-01-27T19:06:15.687Z,4.27
2018-01-27T19:08:44.035Z,4.27
2018-01-27T19:11:12.362Z,4.30
2018-01-27T19:13:40.727Z,4.25
2018-01-27T19:16:09.037Z,4.25
2018-01-27T19:18:39.157Z,4.19
2018-01-27T19:21:07.484Z,4.12
2018-01-27T19:23:36.600Z,4.11
2018-01-27T19:26:06.185Z,4.07
2018-01-27T19:28:35.887Z,4.12
2018-01-27T19:31:05.906Z,4.03
2018-01-27T19:33:34.740Z,3.98
2018-01-27T19:36:03.065Z,3.99
2018-01-27T19:38:33.525Z,4.02
2018-01-27T19:41:01.876Z,3.93
2018-01-27T19:43:30.654Z,3.87
2018-01-27T19:45:59.757Z,3.87
2018-01-27T19:48:29.244Z,3.85
2018-01-27T19:50:57.631Z,3.85
2018-01-27T19:53:26.797Z,3.82
2018-01-27T19:55:55.858Z,3.88
2018-01-27T19:58:24.911Z,4.01
2018-01-27T20:00:53.312Z,3.85
2018-01-27T20:03:21.684Z,3.80
2018-01-27T20:05:51.313Z,3.73
2018-01-27T20:08:20.380Z,3.72
2018-01-27T20:10:50.401Z,3.71
2018-01-27T20:13:19.503Z,3.69
2018-01-27T20:15:47.823Z,3.67
2018-01-27T20:18:17.626Z,3.68
2018-01-27T20:20:46.774Z,3.67
2018-01-27T20:23:17.249Z,3.65
2018-01-27T20:25:48.769Z,3.66
2018-01-27T20:28:17.260Z,3.62
2018-01-27T20:30:45.884Z,3.65
2018-01-27T20:33:15.086Z,3.69
2018-01-27T20:35:44.281Z,3.63
2018-01-27T20:38:13.960Z,3.72
2018-01-27T20:40:42.308Z,3.77
2018-01-27T20:43:12.139Z,3.75
2018-01-27T20:45:40.463Z,3.79
2018-01-27T20:48:10.599Z,3.85
2018-01-27T20:50:40.872Z,3.96
2018-01-27T20:53:10.284Z,3.91
2018-01-27T20:55:38.972Z,3.82
2018-01-27T20:58:07.882Z,3.79
2018-01-27T21:00:38.010Z,3.76
2018-01-27T21:03:07.420Z,3.81
2018-01-27T21:05:35.763Z,3.78
2018-01-27T21:08:04.947Z,3.79
2018-01-27T21:10:33.340Z,3.84
2018-01-27T21:13:01.699Z,3.84
2018-01-27T21:15:30.064Z,3.18
2018-01-27T21:17:58.456Z,3.93
2018-01-27T21:20:26.834Z,3.95
2018-01-27T21:22:55.164Z,3.95
2018-01-27T21:25:24.324Z,3.98
2018-01-27T21:27:52.656Z,4.03
2018-01-27T21:30:21.759Z,4.16
2018-01-27T21:32:50.512Z,4.25
2018-01-27T21:35:18.860Z,4.19
2018-01-27T21:37:47.220Z,4.29
2018-01-27T21:40:15.568Z,4.39
2018-01-27T21:42:45.316Z,4.56
2018-01-27T21:45:13.666Z,4.55
2018-01-27T21:47:42.409Z,4.60
2018-01-27T21:50:10.765Z,4.61
2018-01-27T21:52:39.094Z,4.69
2018-01-27T21:55:08.189Z,4.82
2018-01-27T21:57:38.119Z,4.85
2018-01-27T22:00:07.256Z,4.97
2018-01-27T22:02:37.032Z,4.96
2018-01-27T22:05:05.768Z,5.03
2018-01-27T22:07:34.120Z,5.09
2018-01-27T22:10:03.583Z,5.15
2018-01-27T22:12:33.045Z,5.18
2018-01-27T22:15:02.318Z,5.22
2018-01-27T22:17:30.638Z,5.17
2018-01-27T22:19:59.244Z,5.11
2018-01-27T22:22:28.336Z,5.15
2018-01-27T22:24:57.448Z,5.16
2018-01-27T22:27:25.791Z,5.21
2018-01-27T22:29:54.966Z,5.20
2018-01-27T22:32:23.328Z,5.18
2018-01-27T22:34:51.647Z,5.21
2018-01-27T22:37:19.984Z,5.14
2018-01-27T22:39:48.315Z,5.25
2018-01-27T22:42:17.426Z,5.18
2018-01-27T22:44:45.750Z,5.30
2018-01-27T22:47:14.105Z,5.21
2018-01-27T22:49:42.436Z,5.28
2018-01-27T22:52:12.368Z,5.35
2018-01-27T22:54:41.488Z,5.38
2018-01-27T22:57:09.845Z,5.38
2018-01-27T22:59:38.703Z,5.39
2018-01-27T23:02:07.811Z,5.42
2018-01-27T23:04:36.943Z,5.47
2018-01-27T23:07:05.265Z,5.60
2018-01-27T23:09:33.660Z,5.67
2018-01-27T23:12:02.804Z,5.59
2018-01-27T23:14:31.145Z,5.68
2018-01-27T23:17:00.279Z,5.77
2018-01-27T23:19:28.647Z,5.71
2018-01-27T23:21:57.022Z,5.77
2018-01-27T23:24:25.368Z,5.75
2018-01-27T23:26:53.735Z,5.77
2018-01-27T23:29:22.067Z,5.74
2018-01-27T23:31:50.435Z,5.72
2018-01-27T23:34:19.169Z,5.73
2018-01-27T23:36:47.916Z,5.74
2018-01-27T23:39:16.231Z,5.74
2018-01-27T23:41:44.608Z,5.75
2018-01-27T23:44:12.927Z,5.75
2018-01-27T23:46:41.282Z,5.76
2018-01-27T23:49:10.357Z,5.77
2018-01-27T23:51:38.719Z,5.77
2018-01-27T23:54:07.053Z,5.66
2018-01-27T23:56:35.415Z,5.62
2018-01-27T23:59:04.523Z,5.67
